sensor_id;sensor_type;location;lat;lon;timestamp;P1;durP1;ratioP1;P2;durP2;ratioP2
13477;SDS011;12598;62.382;17.344;2023-05-09T00:00:02;2.50;;;1.63;;
13477;SDS011;12598;62.382;17.344;2023-05-09T00:01:10;4.00;;;1.40;;
13477;SDS011;12598;62.382;17.344;2023-05-09T00:02:13;5.05;;;1.80;;
13477;SDS011;12598;62.382;17.344;2023-05-09T00:03:15;2.58;;;1.40;;
13477;SDS011;12598;62.382;17.344;2023-05-09T00:04:17;4.13;;;1.67;;
13477;SDS011;12598;62.382;17.344;2023-05-09T00:05:20;2.40;;;1.30;;
13477;SDS011;12598;62.382;17.344;2023-05-09T00:06:22;2.20;;;1.40;;
13477;SDS011;12598;62.382;17.344;2023-05-09T00:07:24;2.80;;;1.50;;
13477;SDS011;12598;62.382;17.344;2023-05-09T00:08:26;4.32;;;1.60;;
13477;SDS011;12598;62.382;17.344;2023-05-09T00:09:28;2.35;;;1.52;;
13477;SDS011;12598;62.382;17.344;2023-05-09T00:10:30;3.25;;;1.60;;
13477;SDS011;12598;62.382;17.344;2023-05-09T00:11:31;3.67;;;1.30;;
13477;SDS011;12598;62.382;17.344;2023-05-09T00:12:33;2.15;;;1.20;;
13477;SDS011;12598;62.382;17.344;2023-05-09T00:13:36;3.40;;;1.50;;
13477;SDS011;12598;62.382;17.344;2023-05-09T00:14:38;2.53;;;1.15;;
13477;SDS011;12598;62.382;17.344;2023-05-09T00:15:41;2.25;;;1.08;;
13477;SDS011;12598;62.382;17.344;2023-05-09T00:16:45;4.20;;;1.45;;
13477;SDS011;12598;62.382;17.344;2023-05-09T00:17:47;2.67;;;1.35;;
13477;SDS011;12598;62.382;17.344;2023-05-09T00:18:51;3.63;;;1.20;;
13477;SDS011;12598;62.382;17.344;2023-05-09T00:19:53;2.30;;;1.30;;
13477;SDS011;12598;62.382;17.344;2023-05-09T00:20:55;2.67;;;1.23;;
13477;SDS011;12598;62.382;17.344;2023-05-09T00:21:58;1.55;;;1.42;;
13477;SDS011;12598;62.382;17.344;2023-05-09T00:22:59;3.05;;;1.30;;
13477;SDS011;12598;62.382;17.344;2023-05-09T00:24:01;2.53;;;1.45;;
13477;SDS011;12598;62.382;17.344;2023-05-09T00:25:03;2.55;;;1.67;;
13477;SDS011;12598;62.382;17.344;2023-05-09T00:26:07;2.40;;;1.20;;
13477;SDS011;12598;62.382;17.344;2023-05-09T00:27:10;6.13;;;1.58;;
13477;SDS011;12598;62.382;17.344;2023-05-09T00:28:11;3.67;;;1.42;;
13477;SDS011;12598;62.382;17.344;2023-05-09T00:29:13;1.48;;;1.33;;
13477;SDS011;12598;62.382;17.344;2023-05-09T00:30:15;1.85;;;1.35;;
13477;SDS011;12598;62.382;17.344;2023-05-09T00:31:18;2.70;;;1.50;;
13477;SDS011;12598;62.382;17.344;2023-05-09T00:32:21;1.67;;;1.40;;
13477;SDS011;12598;62.382;17.344;2023-05-09T00:33:23;4.95;;;1.55;;
13477;SDS011;12598;62.382;17.344;2023-05-09T00:34:27;4.03;;;1.20;;
13477;SDS011;12598;62.382;17.344;2023-05-09T00:35:29;3.60;;;1.45;;
13477;SDS011;12598;62.382;17.344;2023-05-09T00:36:32;2.17;;;1.10;;
13477;SDS011;12598;62.382;17.344;2023-05-09T00:37:34;3.20;;;1.10;;
13477;SDS011;12598;62.382;17.344;2023-05-09T00:38:36;2.63;;;1.45;;
13477;SDS011;12598;62.382;17.344;2023-05-09T00:39:38;4.03;;;1.50;;
13477;SDS011;12598;62.382;17.344;2023-05-09T00:40:40;2.90;;;1.60;;
13477;SDS011;12598;62.382;17.344;2023-05-09T00:41:42;2.22;;;1.30;;
13477;SDS011;12598;62.382;17.344;2023-05-09T00:42:44;3.42;;;1.25;;
13477;SDS011;12598;62.382;17.344;2023-05-09T00:43:46;3.03;;;1.85;;
13477;SDS011;12598;62.382;17.344;2023-05-09T00:44:48;4.72;;;1.30;;
13477;SDS011;12598;62.382;17.344;2023-05-09T00:45:49;1.73;;;1.02;;
13477;SDS011;12598;62.382;17.344;2023-05-09T00:46:52;2.47;;;1.20;;
13477;SDS011;12598;62.382;17.344;2023-05-09T00:47:54;2.92;;;1.23;;
13477;SDS011;12598;62.382;17.344;2023-05-09T00:48:56;2.20;;;1.30;;
13477;SDS011;12598;62.382;17.344;2023-05-09T00:49:58;3.38;;;1.30;;
13477;SDS011;12598;62.382;17.344;2023-05-09T00:51:00;2.08;;;1.20;;
13477;SDS011;12598;62.382;17.344;2023-05-09T00:52:03;1.98;;;1.40;;
13477;SDS011;12598;62.382;17.344;2023-05-09T00:53:05;2.22;;;1.40;;
13477;SDS011;12598;62.382;17.344;2023-05-09T00:54:08;3.17;;;1.58;;
13477;SDS011;12598;62.382;17.344;2023-05-09T00:55:10;1.52;;;1.33;;
13477;SDS011;12598;62.382;17.344;2023-05-09T00:56:14;1.70;;;1.27;;
13477;SDS011;12598;62.382;17.344;2023-05-09T00:57:16;4.20;;;1.38;;
13477;SDS011;12598;62.382;17.344;2023-05-09T00:58:17;2.63;;;1.63;;
13477;SDS011;12598;62.382;17.344;2023-05-09T00:59:19;3.67;;;1.58;;
13477;SDS011;12598;62.382;17.344;2023-05-09T01:00:22;3.20;;;1.60;;
13477;SDS011;12598;62.382;17.344;2023-05-09T01:01:24;3.03;;;1.65;;
13477;SDS011;12598;62.382;17.344;2023-05-09T01:02:26;2.15;;;1.70;;
13477;SDS011;12598;62.382;17.344;2023-05-09T01:03:28;2.55;;;1.75;;
13477;SDS011;12598;62.382;17.344;2023-05-09T01:04:31;2.72;;;1.50;;
13477;SDS011;12598;62.382;17.344;2023-05-09T01:05:39;2.20;;;1.98;;
13477;SDS011;12598;62.382;17.344;2023-05-09T01:06:56;2.05;;;1.38;;
13477;SDS011;12598;62.382;17.344;2023-05-09T01:10:20;2.13;;;1.77;;
13477;SDS011;12598;62.382;17.344;2023-05-09T01:13:51;3.30;;;2.17;;
13477;SDS011;12598;62.382;17.344;2023-05-09T01:16:22;6.22;;;2.03;;
13477;SDS011;12598;62.382;17.344;2023-05-09T01:19:01;1.95;;;1.67;;
13477;SDS011;12598;62.382;17.344;2023-05-09T01:21:36;3.97;;;1.95;;
13477;SDS011;12598;62.382;17.344;2023-05-09T01:22:45;4.43;;;2.15;;
13477;SDS011;12598;62.382;17.344;2023-05-09T01:23:58;2.40;;;1.73;;
13477;SDS011;12598;62.382;17.344;2023-05-09T01:27:03;4.47;;;2.13;;
13477;SDS011;12598;62.382;17.344;2023-05-09T01:29:59;3.25;;;2.10;;
13477;SDS011;12598;62.382;17.344;2023-05-09T01:31:04;5.28;;;2.08;;
13477;SDS011;12598;62.382;17.344;2023-05-09T01:32:11;4.00;;;2.17;;
13477;SDS011;12598;62.382;17.344;2023-05-09T01:33:16;3.15;;;2.13;;
13477;SDS011;12598;62.382;17.344;2023-05-09T01:34:21;2.85;;;2.05;;
13477;SDS011;12598;62.382;17.344;2023-05-09T01:35:26;2.58;;;2.20;;
13477;SDS011;12598;62.382;17.344;2023-05-09T01:36:31;4.30;;;2.15;;
13477;SDS011;12598;62.382;17.344;2023-05-09T01:37:38;2.10;;;1.90;;
13477;SDS011;12598;62.382;17.344;2023-05-09T01:38:46;2.75;;;2.17;;
13477;SDS011;12598;62.382;17.344;2023-05-09T01:39:52;3.47;;;2.45;;
13477;SDS011;12598;62.382;17.344;2023-05-09T01:40:56;3.03;;;2.30;;
13477;SDS011;12598;62.382;17.344;2023-05-09T01:42:01;4.03;;;2.78;;
13477;SDS011;12598;62.382;17.344;2023-05-09T01:43:04;3.63;;;2.20;;
13477;SDS011;12598;62.382;17.344;2023-05-09T01:44:10;4.80;;;2.10;;
13477;SDS011;12598;62.382;17.344;2023-05-09T01:45:14;5.60;;;2.70;;
13477;SDS011;12598;62.382;17.344;2023-05-09T01:46:17;4.88;;;2.70;;
13477;SDS011;12598;62.382;17.344;2023-05-09T01:47:21;2.97;;;2.50;;
13477;SDS011;12598;62.382;17.344;2023-05-09T01:48:23;2.67;;;2.30;;
13477;SDS011;12598;62.382;17.344;2023-05-09T01:49:28;3.58;;;2.35;;
13477;SDS011;12598;62.382;17.344;2023-05-09T01:50:33;4.55;;;2.28;;
13477;SDS011;12598;62.382;17.344;2023-05-09T01:51:36;4.50;;;2.40;;
13477;SDS011;12598;62.382;17.344;2023-05-09T01:52:42;7.05;;;2.55;;
13477;SDS011;12598;62.382;17.344;2023-05-09T01:53:48;3.63;;;1.95;;
13477;SDS011;12598;62.382;17.344;2023-05-09T01:54:53;2.55;;;2.08;;
13477;SDS011;12598;62.382;17.344;2023-05-09T01:55:56;3.95;;;2.30;;
13477;SDS011;12598;62.382;17.344;2023-05-09T01:56:59;5.32;;;2.10;;
13477;SDS011;12598;62.382;17.344;2023-05-09T01:58:03;3.55;;;2.15;;
13477;SDS011;12598;62.382;17.344;2023-05-09T01:59:06;3.85;;;2.40;;
13477;SDS011;12598;62.382;17.344;2023-05-09T02:00:08;3.08;;;1.98;;
13477;SDS011;12598;62.382;17.344;2023-05-09T02:01:13;4.28;;;2.13;;
13477;SDS011;12598;62.382;17.344;2023-05-09T02:02:16;3.45;;;2.13;;
13477;SDS011;12598;62.382;17.344;2023-05-09T02:03:19;3.65;;;1.80;;
13477;SDS011;12598;62.382;17.344;2023-05-09T02:04:22;3.13;;;2.30;;
13477;SDS011;12598;62.382;17.344;2023-05-09T02:05:26;5.35;;;2.30;;
13477;SDS011;12598;62.382;17.344;2023-05-09T02:06:30;6.00;;;2.13;;
13477;SDS011;12598;62.382;17.344;2023-05-09T02:07:33;2.60;;;1.73;;
13477;SDS011;12598;62.382;17.344;2023-05-09T02:08:35;2.83;;;1.77;;
13477;SDS011;12598;62.382;17.344;2023-05-09T02:09:37;4.70;;;2.22;;
13477;SDS011;12598;62.382;17.344;2023-05-09T02:10:39;2.75;;;2.10;;
13477;SDS011;12598;62.382;17.344;2023-05-09T02:11:42;5.70;;;2.40;;
13477;SDS011;12598;62.382;17.344;2023-05-09T02:12:44;2.35;;;1.90;;
13477;SDS011;12598;62.382;17.344;2023-05-09T02:13:45;3.33;;;1.95;;
13477;SDS011;12598;62.382;17.344;2023-05-09T02:14:47;2.45;;;1.83;;
13477;SDS011;12598;62.382;17.344;2023-05-09T02:15:50;3.40;;;1.85;;
13477;SDS011;12598;62.382;17.344;2023-05-09T02:16:52;3.75;;;1.85;;
13477;SDS011;12598;62.382;17.344;2023-05-09T02:17:54;3.83;;;1.95;;
13477;SDS011;12598;62.382;17.344;2023-05-09T02:18:57;3.25;;;1.80;;
13477;SDS011;12598;62.382;17.344;2023-05-09T02:19:59;2.90;;;1.80;;
13477;SDS011;12598;62.382;17.344;2023-05-09T02:21:01;2.42;;;1.80;;
13477;SDS011;12598;62.382;17.344;2023-05-09T02:22:04;3.03;;;2.22;;
13477;SDS011;12598;62.382;17.344;2023-05-09T02:23:06;3.35;;;1.83;;
13477;SDS011;12598;62.382;17.344;2023-05-09T02:24:08;3.88;;;2.20;;
13477;SDS011;12598;62.382;17.344;2023-05-09T02:25:11;1.95;;;1.67;;
13477;SDS011;12598;62.382;17.344;2023-05-09T02:26:17;2.55;;;1.73;;
13477;SDS011;12598;62.382;17.344;2023-05-09T02:27:19;2.83;;;1.75;;
13477;SDS011;12598;62.382;17.344;2023-05-09T02:28:22;3.80;;;1.80;;
13477;SDS011;12598;62.382;17.344;2023-05-09T02:29:30;2.17;;;1.80;;
13477;SDS011;12598;62.382;17.344;2023-05-09T02:30:41;5.35;;;1.90;;
13477;SDS011;12598;62.382;17.344;2023-05-09T02:31:46;3.97;;;1.90;;
13477;SDS011;12598;62.382;17.344;2023-05-09T02:32:51;4.35;;;2.00;;
13477;SDS011;12598;62.382;17.344;2023-05-09T02:33:57;3.80;;;2.15;;
13477;SDS011;12598;62.382;17.344;2023-05-09T02:35:00;2.90;;;1.73;;
13477;SDS011;12598;62.382;17.344;2023-05-09T02:36:04;2.28;;;1.65;;
13477;SDS011;12598;62.382;17.344;2023-05-09T02:37:07;4.40;;;2.25;;
13477;SDS011;12598;62.382;17.344;2023-05-09T02:38:11;3.00;;;1.95;;
13477;SDS011;12598;62.382;17.344;2023-05-09T02:39:14;3.20;;;1.77;;
13477;SDS011;12598;62.382;17.344;2023-05-09T02:40:16;2.22;;;1.88;;
13477;SDS011;12598;62.382;17.344;2023-05-09T02:41:19;3.15;;;2.10;;
13477;SDS011;12598;62.382;17.344;2023-05-09T02:42:23;5.05;;;2.03;;
13477;SDS011;12598;62.382;17.344;2023-05-09T02:43:25;3.25;;;1.77;;
13477;SDS011;12598;62.382;17.344;2023-05-09T02:44:28;3.88;;;2.15;;
13477;SDS011;12598;62.382;17.344;2023-05-09T02:45:30;4.45;;;2.20;;
13477;SDS011;12598;62.382;17.344;2023-05-09T02:46:32;2.75;;;2.03;;
13477;SDS011;12598;62.382;17.344;2023-05-09T02:47:34;4.47;;;2.13;;
13477;SDS011;12598;62.382;17.344;2023-05-09T02:48:36;2.40;;;1.77;;
13477;SDS011;12598;62.382;17.344;2023-05-09T02:49:38;3.10;;;1.80;;
13477;SDS011;12598;62.382;17.344;2023-05-09T02:50:40;5.28;;;2.00;;
13477;SDS011;12598;62.382;17.344;2023-05-09T02:51:43;3.72;;;1.95;;
13477;SDS011;12598;62.382;17.344;2023-05-09T02:52:45;2.35;;;2.08;;
13477;SDS011;12598;62.382;17.344;2023-05-09T02:53:47;3.97;;;1.80;;
13477;SDS011;12598;62.382;17.344;2023-05-09T02:54:49;2.15;;;1.88;;
13477;SDS011;12598;62.382;17.344;2023-05-09T02:55:51;2.45;;;1.95;;
13477;SDS011;12598;62.382;17.344;2023-05-09T02:56:54;3.53;;;1.90;;
13477;SDS011;12598;62.382;17.344;2023-05-09T02:57:56;3.92;;;1.60;;
13477;SDS011;12598;62.382;17.344;2023-05-09T02:59:16;4.05;;;2.10;;
13477;SDS011;12598;62.382;17.344;2023-05-09T03:00:19;2.95;;;1.90;;
13477;SDS011;12598;62.382;17.344;2023-05-09T03:01:22;3.40;;;1.67;;
13477;SDS011;12598;62.382;17.344;2023-05-09T03:02:23;2.92;;;1.55;;
13477;SDS011;12598;62.382;17.344;2023-05-09T03:03:27;2.20;;;1.80;;
13477;SDS011;12598;62.382;17.344;2023-05-09T03:04:29;4.43;;;2.00;;
13477;SDS011;12598;62.382;17.344;2023-05-09T03:05:32;2.13;;;1.83;;
13477;SDS011;12598;62.382;17.344;2023-05-09T03:06:34;1.95;;;1.77;;
13477;SDS011;12598;62.382;17.344;2023-05-09T03:07:37;2.65;;;1.70;;
13477;SDS011;12598;62.382;17.344;2023-05-09T03:08:39;1.85;;;1.70;;
13477;SDS011;12598;62.382;17.344;2023-05-09T03:09:41;2.40;;;1.77;;
13477;SDS011;12598;62.382;17.344;2023-05-09T03:10:44;2.65;;;1.55;;
13477;SDS011;12598;62.382;17.344;2023-05-09T03:11:46;3.30;;;1.70;;
13477;SDS011;12598;62.382;17.344;2023-05-09T03:12:48;3.03;;;1.73;;
13477;SDS011;12598;62.382;17.344;2023-05-09T03:13:50;3.45;;;1.83;;
13477;SDS011;12598;62.382;17.344;2023-05-09T03:14:52;2.42;;;1.73;;
13477;SDS011;12598;62.382;17.344;2023-05-09T03:15:54;2.58;;;1.83;;
13477;SDS011;12598;62.382;17.344;2023-05-09T03:16:56;3.53;;;1.73;;
13477;SDS011;12598;62.382;17.344;2023-05-09T03:18:03;3.05;;;1.80;;
13477;SDS011;12598;62.382;17.344;2023-05-09T03:19:05;2.00;;;1.63;;
13477;SDS011;12598;62.382;17.344;2023-05-09T03:20:07;3.13;;;1.75;;
13477;SDS011;12598;62.382;17.344;2023-05-09T03:21:10;2.85;;;1.60;;
13477;SDS011;12598;62.382;17.344;2023-05-09T03:22:13;2.35;;;1.40;;
13477;SDS011;12598;62.382;17.344;2023-05-09T03:23:33;1.83;;;1.60;;
13477;SDS011;12598;62.382;17.344;2023-05-09T03:24:36;2.50;;;1.55;;
13477;SDS011;12598;62.382;17.344;2023-05-09T03:25:37;3.65;;;1.55;;
13477;SDS011;12598;62.382;17.344;2023-05-09T03:26:39;1.70;;;1.60;;
13477;SDS011;12598;62.382;17.344;2023-05-09T03:27:41;1.63;;;1.30;;
13477;SDS011;12598;62.382;17.344;2023-05-09T03:28:47;2.28;;;1.27;;
13477;SDS011;12598;62.382;17.344;2023-05-09T03:29:49;2.00;;;1.73;;
13477;SDS011;12598;62.382;17.344;2023-05-09T03:30:52;1.95;;;1.70;;
13477;SDS011;12598;62.382;17.344;2023-05-09T03:31:58;1.50;;;1.38;;
13477;SDS011;12598;62.382;17.344;2023-05-09T03:32:59;3.30;;;1.70;;
13477;SDS011;12598;62.382;17.344;2023-05-09T03:34:01;2.58;;;1.50;;
13477;SDS011;12598;62.382;17.344;2023-05-09T03:35:03;2.67;;;1.50;;
13477;SDS011;12598;62.382;17.344;2023-05-09T03:36:06;2.63;;;1.30;;
13477;SDS011;12598;62.382;17.344;2023-05-09T03:37:09;1.58;;;1.48;;
13477;SDS011;12598;62.382;17.344;2023-05-09T03:38:13;2.83;;;1.40;;
13477;SDS011;12598;62.382;17.344;2023-05-09T03:39:15;2.03;;;1.40;;
13477;SDS011;12598;62.382;17.344;2023-05-09T03:40:20;2.47;;;1.20;;
13477;SDS011;12598;62.382;17.344;2023-05-09T03:41:36;2.60;;;1.70;;
13477;SDS011;12598;62.382;17.344;2023-05-09T03:42:38;3.40;;;1.20;;
13477;SDS011;12598;62.382;17.344;2023-05-09T03:43:40;3.35;;;1.55;;
13477;SDS011;12598;62.382;17.344;2023-05-09T03:44:42;4.07;;;1.80;;
13477;SDS011;12598;62.382;17.344;2023-05-09T03:45:44;5.68;;;1.75;;
13477;SDS011;12598;62.382;17.344;2023-05-09T03:46:48;3.92;;;1.50;;
13477;SDS011;12598;62.382;17.344;2023-05-09T03:47:50;2.15;;;1.35;;
13477;SDS011;12598;62.382;17.344;2023-05-09T03:48:52;4.25;;;1.63;;
13477;SDS011;12598;62.382;17.344;2023-05-09T03:49:54;1.60;;;1.30;;
13477;SDS011;12598;62.382;17.344;2023-05-09T03:50:57;2.55;;;1.52;;
13477;SDS011;12598;62.382;17.344;2023-05-09T03:52:01;1.88;;;1.52;;
13477;SDS011;12598;62.382;17.344;2023-05-09T03:53:04;3.45;;;1.58;;
13477;SDS011;12598;62.382;17.344;2023-05-09T03:54:10;4.63;;;1.50;;
13477;SDS011;12598;62.382;17.344;2023-05-09T03:55:13;2.72;;;1.52;;
13477;SDS011;12598;62.382;17.344;2023-05-09T03:56:15;3.38;;;1.40;;
13477;SDS011;12598;62.382;17.344;2023-05-09T03:57:22;2.40;;;1.70;;
13477;SDS011;12598;62.382;17.344;2023-05-09T03:58:27;3.95;;;1.77;;
13477;SDS011;12598;62.382;17.344;2023-05-09T03:59:29;4.13;;;1.50;;
13477;SDS011;12598;62.382;17.344;2023-05-09T04:00:31;4.80;;;1.60;;
13477;SDS011;12598;62.382;17.344;2023-05-09T04:01:40;3.00;;;1.50;;
13477;SDS011;12598;62.382;17.344;2023-05-09T04:02:42;2.63;;;1.50;;
13477;SDS011;12598;62.382;17.344;2023-05-09T04:03:53;4.70;;;1.50;;
13477;SDS011;12598;62.382;17.344;2023-05-09T04:04:59;4.03;;;1.50;;
13477;SDS011;12598;62.382;17.344;2023-05-09T04:06:01;5.75;;;1.80;;
13477;SDS011;12598;62.382;17.344;2023-05-09T04:07:08;4.20;;;1.83;;
13477;SDS011;12598;62.382;17.344;2023-05-09T04:08:10;3.25;;;1.70;;
13477;SDS011;12598;62.382;17.344;2023-05-09T04:09:12;5.13;;;1.70;;
13477;SDS011;12598;62.382;17.344;2023-05-09T04:10:15;4.55;;;1.50;;
13477;SDS011;12598;62.382;17.344;2023-05-09T04:11:18;4.72;;;1.88;;
13477;SDS011;12598;62.382;17.344;2023-05-09T04:12:21;3.60;;;1.75;;
13477;SDS011;12598;62.382;17.344;2023-05-09T04:13:24;7.28;;;1.90;;
13477;SDS011;12598;62.382;17.344;2023-05-09T04:14:26;4.93;;;1.90;;
13477;SDS011;12598;62.382;17.344;2023-05-09T04:15:28;4.63;;;1.92;;
13477;SDS011;12598;62.382;17.344;2023-05-09T04:16:31;4.00;;;1.60;;
13477;SDS011;12598;62.382;17.344;2023-05-09T04:17:33;5.63;;;2.10;;
13477;SDS011;12598;62.382;17.344;2023-05-09T04:18:35;5.97;;;2.00;;
13477;SDS011;12598;62.382;17.344;2023-05-09T04:19:40;6.53;;;1.70;;
13477;SDS011;12598;62.382;17.344;2023-05-09T04:20:42;5.10;;;1.83;;
13477;SDS011;12598;62.382;17.344;2023-05-09T04:21:44;4.88;;;1.55;;
13477;SDS011;12598;62.382;17.344;2023-05-09T04:22:46;7.53;;;1.55;;
13477;SDS011;12598;62.382;17.344;2023-05-09T04:23:49;3.22;;;1.48;;
13477;SDS011;12598;62.382;17.344;2023-05-09T04:24:56;2.85;;;1.67;;
13477;SDS011;12598;62.382;17.344;2023-05-09T04:25:58;4.60;;;1.98;;
13477;SDS011;12598;62.382;17.344;2023-05-09T04:27:01;3.85;;;1.83;;
13477;SDS011;12598;62.382;17.344;2023-05-09T04:28:03;8.23;;;1.52;;
13477;SDS011;12598;62.382;17.344;2023-05-09T04:29:05;6.82;;;1.80;;
13477;SDS011;12598;62.382;17.344;2023-05-09T04:30:07;6.22;;;1.67;;
13477;SDS011;12598;62.382;17.344;2023-05-09T04:31:10;3.10;;;1.67;;
13477;SDS011;12598;62.382;17.344;2023-05-09T04:32:18;5.72;;;1.80;;
13477;SDS011;12598;62.382;17.344;2023-05-09T04:33:21;4.70;;;1.58;;
13477;SDS011;12598;62.382;17.344;2023-05-09T04:34:25;3.83;;;1.65;;
13477;SDS011;12598;62.382;17.344;2023-05-09T04:35:29;5.15;;;1.67;;
13477;SDS011;12598;62.382;17.344;2023-05-09T04:36:31;4.15;;;1.80;;
13477;SDS011;12598;62.382;17.344;2023-05-09T04:37:34;2.65;;;1.33;;
13477;SDS011;12598;62.382;17.344;2023-05-09T04:38:36;2.85;;;1.67;;
13477;SDS011;12598;62.382;17.344;2023-05-09T04:39:42;5.32;;;1.58;;
13477;SDS011;12598;62.382;17.344;2023-05-09T04:40:53;4.38;;;1.90;;
13477;SDS011;12598;62.382;17.344;2023-05-09T04:41:55;8.73;;;2.33;;
13477;SDS011;12598;62.382;17.344;2023-05-09T04:42:57;7.50;;;2.20;;
13477;SDS011;12598;62.382;17.344;2023-05-09T04:44:02;5.97;;;1.98;;
13477;SDS011;12598;62.382;17.344;2023-05-09T04:45:04;4.40;;;1.85;;
13477;SDS011;12598;62.382;17.344;2023-05-09T04:46:06;8.57;;;2.30;;
13477;SDS011;12598;62.382;17.344;2023-05-09T04:47:09;10.75;;;2.35;;
13477;SDS011;12598;62.382;17.344;2023-05-09T04:48:11;7.30;;;2.30;;
13477;SDS011;12598;62.382;17.344;2023-05-09T04:49:13;7.90;;;1.70;;
13477;SDS011;12598;62.382;17.344;2023-05-09T04:50:15;6.15;;;1.70;;
13477;SDS011;12598;62.382;17.344;2023-05-09T04:51:17;8.00;;;2.00;;
13477;SDS011;12598;62.382;17.344;2023-05-09T04:52:19;6.07;;;1.83;;
13477;SDS011;12598;62.382;17.344;2023-05-09T04:53:21;8.88;;;2.20;;
13477;SDS011;12598;62.382;17.344;2023-05-09T04:54:23;5.25;;;1.55;;
13477;SDS011;12598;62.382;17.344;2023-05-09T04:55:27;7.45;;;2.00;;
13477;SDS011;12598;62.382;17.344;2023-05-09T04:56:30;5.63;;;1.90;;
13477;SDS011;12598;62.382;17.344;2023-05-09T04:57:33;5.45;;;2.20;;
13477;SDS011;12598;62.382;17.344;2023-05-09T04:58:37;5.47;;;1.55;;
13477;SDS011;12598;62.382;17.344;2023-05-09T04:59:43;6.35;;;2.38;;
13477;SDS011;12598;62.382;17.344;2023-05-09T05:00:47;5.88;;;1.60;;
13477;SDS011;12598;62.382;17.344;2023-05-09T05:01:50;9.23;;;1.90;;
13477;SDS011;12598;62.382;17.344;2023-05-09T05:02:54;5.72;;;1.40;;
13477;SDS011;12598;62.382;17.344;2023-05-09T05:03:58;4.88;;;1.60;;
13477;SDS011;12598;62.382;17.344;2023-05-09T05:05:00;4.32;;;1.65;;
13477;SDS011;12598;62.382;17.344;2023-05-09T05:06:14;2.95;;;1.63;;
13477;SDS011;12598;62.382;17.344;2023-05-09T05:07:16;5.20;;;1.60;;
13477;SDS011;12598;62.382;17.344;2023-05-09T05:08:19;3.10;;;1.95;;
13477;SDS011;12598;62.382;17.344;2023-05-09T05:09:22;4.85;;;1.85;;
13477;SDS011;12598;62.382;17.344;2023-05-09T05:10:24;6.85;;;1.55;;
13477;SDS011;12598;62.382;17.344;2023-05-09T05:11:35;4.03;;;1.40;;
13477;SDS011;12598;62.382;17.344;2023-05-09T05:12:38;4.60;;;2.22;;
13477;SDS011;12598;62.382;17.344;2023-05-09T05:13:44;5.97;;;1.95;;
13477;SDS011;12598;62.382;17.344;2023-05-09T05:14:45;7.45;;;2.08;;
13477;SDS011;12598;62.382;17.344;2023-05-09T05:15:51;6.80;;;2.70;;
13477;SDS011;12598;62.382;17.344;2023-05-09T05:16:55;6.13;;;1.75;;
13477;SDS011;12598;62.382;17.344;2023-05-09T05:17:57;9.13;;;2.05;;
13477;SDS011;12598;62.382;17.344;2023-05-09T05:19:03;6.05;;;1.70;;
13477;SDS011;12598;62.382;17.344;2023-05-09T05:20:10;11.70;;;2.35;;
13477;SDS011;12598;62.382;17.344;2023-05-09T05:21:16;5.78;;;2.17;;
13477;SDS011;12598;62.382;17.344;2023-05-09T05:22:18;8.00;;;1.70;;
13477;SDS011;12598;62.382;17.344;2023-05-09T05:23:20;8.25;;;1.80;;
13477;SDS011;12598;62.382;17.344;2023-05-09T05:24:26;4.47;;;1.58;;
13477;SDS011;12598;62.382;17.344;2023-05-09T05:25:29;3.88;;;2.03;;
13477;SDS011;12598;62.382;17.344;2023-05-09T05:26:33;3.45;;;1.50;;
13477;SDS011;12598;62.382;17.344;2023-05-09T05:27:35;6.38;;;1.67;;
13477;SDS011;12598;62.382;17.344;2023-05-09T05:28:37;6.20;;;1.98;;
13477;SDS011;12598;62.382;17.344;2023-05-09T05:29:40;4.97;;;1.98;;
13477;SDS011;12598;62.382;17.344;2023-05-09T05:30:41;8.15;;;2.05;;
13477;SDS011;12598;62.382;17.344;2023-05-09T05:31:43;4.50;;;1.50;;
13477;SDS011;12598;62.382;17.344;2023-05-09T05:32:45;6.40;;;1.45;;
13477;SDS011;12598;62.382;17.344;2023-05-09T05:33:50;3.75;;;1.42;;
13477;SDS011;12598;62.382;17.344;2023-05-09T05:34:53;3.85;;;1.50;;
13477;SDS011;12598;62.382;17.344;2023-05-09T05:35:55;4.47;;;1.67;;
13477;SDS011;12598;62.382;17.344;2023-05-09T05:36:57;8.70;;;1.83;;
13477;SDS011;12598;62.382;17.344;2023-05-09T05:37:59;7.47;;;1.80;;
13477;SDS011;12598;62.382;17.344;2023-05-09T05:39:01;3.58;;;1.70;;
13477;SDS011;12598;62.382;17.344;2023-05-09T05:40:04;4.57;;;1.85;;
13477;SDS011;12598;62.382;17.344;2023-05-09T05:41:07;7.35;;;1.75;;
13477;SDS011;12598;62.382;17.344;2023-05-09T05:42:14;3.95;;;1.63;;
13477;SDS011;12598;62.382;17.344;2023-05-09T05:43:17;2.38;;;1.42;;
13477;SDS011;12598;62.382;17.344;2023-05-09T05:44:19;3.50;;;1.70;;
13477;SDS011;12598;62.382;17.344;2023-05-09T05:45:21;4.35;;;1.98;;
13477;SDS011;12598;62.382;17.344;2023-05-09T05:46:26;4.53;;;1.52;;
13477;SDS011;12598;62.382;17.344;2023-05-09T05:47:30;12.00;;;1.95;;
13477;SDS011;12598;62.382;17.344;2023-05-09T05:48:33;4.63;;;1.60;;
13477;SDS011;12598;62.382;17.344;2023-05-09T05:49:35;9.27;;;1.80;;
13477;SDS011;12598;62.382;17.344;2023-05-09T05:50:37;4.55;;;1.10;;
13477;SDS011;12598;62.382;17.344;2023-05-09T05:51:39;4.28;;;1.65;;
13477;SDS011;12598;62.382;17.344;2023-05-09T05:52:42;2.28;;;1.48;;
13477;SDS011;12598;62.382;17.344;2023-05-09T05:53:48;5.40;;;1.77;;
13477;SDS011;12598;62.382;17.344;2023-05-09T05:54:49;5.20;;;1.42;;
13477;SDS011;12598;62.382;17.344;2023-05-09T05:55:51;4.05;;;1.50;;
13477;SDS011;12598;62.382;17.344;2023-05-09T05:56:54;4.43;;;1.20;;
13477;SDS011;12598;62.382;17.344;2023-05-09T05:57:56;9.57;;;2.00;;
13477;SDS011;12598;62.382;17.344;2023-05-09T05:58:58;16.33;;;3.10;;
13477;SDS011;12598;62.382;17.344;2023-05-09T06:00:01;12.95;;;2.25;;
13477;SDS011;12598;62.382;17.344;2023-05-09T06:01:13;6.72;;;1.95;;
13477;SDS011;12598;62.382;17.344;2023-05-09T06:02:16;4.72;;;1.60;;
13477;SDS011;12598;62.382;17.344;2023-05-09T06:03:19;7.07;;;1.75;;
13477;SDS011;12598;62.382;17.344;2023-05-09T06:04:31;6.63;;;1.92;;
13477;SDS011;12598;62.382;17.344;2023-05-09T06:05:33;7.97;;;2.00;;
13477;SDS011;12598;62.382;17.344;2023-05-09T06:06:35;8.18;;;1.92;;
13477;SDS011;12598;62.382;17.344;2023-05-09T06:07:37;5.22;;;1.67;;
13477;SDS011;12598;62.382;17.344;2023-05-09T06:08:42;3.05;;;1.20;;
13477;SDS011;12598;62.382;17.344;2023-05-09T06:09:44;6.05;;;1.83;;
13477;SDS011;12598;62.382;17.344;2023-05-09T06:10:46;4.00;;;1.35;;
13477;SDS011;12598;62.382;17.344;2023-05-09T06:11:48;2.45;;;1.42;;
13477;SDS011;12598;62.382;17.344;2023-05-09T06:12:49;4.00;;;1.50;;
13477;SDS011;12598;62.382;17.344;2023-05-09T06:13:51;4.00;;;1.30;;
13477;SDS011;12598;62.382;17.344;2023-05-09T06:14:53;5.70;;;1.50;;
13477;SDS011;12598;62.382;17.344;2023-05-09T06:15:55;6.05;;;1.80;;
13477;SDS011;12598;62.382;17.344;2023-05-09T06:17:08;3.00;;;1.30;;
13477;SDS011;12598;62.382;17.344;2023-05-09T06:18:10;2.67;;;1.13;;
13477;SDS011;12598;62.382;17.344;2023-05-09T06:19:12;2.78;;;1.35;;
13477;SDS011;12598;62.382;17.344;2023-05-09T06:20:14;4.25;;;1.77;;
13477;SDS011;12598;62.382;17.344;2023-05-09T06:21:16;4.13;;;1.40;;
13477;SDS011;12598;62.382;17.344;2023-05-09T06:22:18;2.45;;;0.95;;
13477;SDS011;12598;62.382;17.344;2023-05-09T06:23:19;2.08;;;1.20;;
13477;SDS011;12598;62.382;17.344;2023-05-09T06:24:22;1.90;;;1.25;;
13477;SDS011;12598;62.382;17.344;2023-05-09T06:25:37;5.93;;;1.38;;
13477;SDS011;12598;62.382;17.344;2023-05-09T06:26:40;3.72;;;1.20;;
13477;SDS011;12598;62.382;17.344;2023-05-09T06:27:42;4.10;;;1.10;;
13477;SDS011;12598;62.382;17.344;2023-05-09T06:28:45;4.13;;;1.33;;